createdAt,value
2019-01-25T00:01:14.198Z,101104.50
2019-01-25T00:03:43.492Z,101001.69
2019-01-25T00:06:52.180Z,101103.21
2019-01-25T00:09:40.631Z,101098.03
2019-01-25T00:12:10.019Z,101096.73
2019-01-25T00:14:39.714Z,101101.46
2019-01-25T00:17:09.079Z,101047.05
2019-01-25T00:19:57.372Z,101088.95
2019-01-25T00:22:26.886Z,101092.84
2019-01-25T00:24:56.212Z,101085.91
2019-01-25T00:27:25.707Z,101096.27
2019-01-25T00:29:54.998Z,101086.36
2019-01-25T00:32:24.407Z,101084.61
2019-01-25T00:34:53.749Z,101091.09
2019-01-25T00:37:23.433Z,101085.06
2019-01-25T00:40:12.592Z,101033.21
2019-01-25T00:42:41.875Z,101079.88
2019-01-25T00:48:07.308Z,101085.06
2019-01-25T00:50:36.911Z,101088.50
2019-01-25T00:56:20.861Z,101089.38
2019-01-25T00:58:50.331Z,101081.59
2019-01-25T01:01:19.620Z,101080.72
2019-01-25T01:03:49.315Z,101074.69
2019-01-25T01:06:18.602Z,100979.66
2019-01-25T01:08:48.306Z,101076.83
2019-01-25T01:11:17.597Z,101071.64
2019-01-25T01:13:47.313Z,101074.69
2019-01-25T01:16:16.608Z,101069.05
2019-01-25T01:18:46.226Z,101065.17
2019-01-25T01:21:35.306Z,101022.85
2019-01-25T01:27:13.283Z,101053.09
2019-01-25T01:29:42.571Z,100983.11
2019-01-25T01:32:12.194Z,101055.67
2019-01-25T01:34:41.487Z,101053.09
2019-01-25T01:37:11.078Z,101048.77
2019-01-25T01:39:40.411Z,101043.59
2019-01-25T01:42:10.097Z,101044.01
2019-01-25T01:44:39.383Z,101043.59
2019-01-25T01:47:09.184Z,101039.70
2019-01-25T01:49:57.528Z,101031.92
2019-01-25T01:52:26.853Z,101028.04
2019-01-25T01:54:56.272Z,101024.58
2019-01-25T01:57:25.562Z,101025.45
2019-01-25T01:59:55.171Z,101023.70
2019-01-25T02:02:24.458Z,101021.56
2019-01-25T02:04:54.158Z,101026.30
2019-01-25T02:07:42.661Z,101024.58
2019-01-25T02:10:14.773Z,101018.09
2019-01-25T02:18:13.498Z,101011.20
2019-01-25T02:20:43.101Z,101014.21
2019-01-25T02:23:12.396Z,101009.02
2019-01-25T02:25:41.971Z,100997.78
2019-01-25T02:28:23.215Z,100993.48
2019-01-25T02:30:52.539Z,100990.47
2019-01-25T02:33:21.863Z,100988.30
2019-01-25T02:35:51.167Z,100991.76
2019-01-25T02:38:39.429Z,100984.41
2019-01-25T02:41:08.793Z,100980.94
2019-01-25T02:43:38.088Z,100981.81
2019-01-25T02:46:07.375Z,100968.44
2019-01-25T02:48:36.779Z,100974.50
2019-01-25T02:51:06.125Z,100980.52
2019-01-25T02:53:35.454Z,100973.63
2019-01-25T02:56:05.562Z,100962.80
2019-01-25T02:58:34.880Z,100962.80
2019-01-25T03:01:24.514Z,100966.72
2019-01-25T03:03:53.843Z,100958.91
2019-01-25T03:06:23.198Z,100957.20
2019-01-25T03:11:40.721Z,100930.47
2019-01-25T03:14:29.032Z,100945.99
2019-01-25T03:19:46.613Z,100944.66
2019-01-25T03:22:16.119Z,100943.36
2019-01-25T03:24:45.397Z,100947.29
2019-01-25T03:27:14.846Z,100944.23
2019-01-25T03:29:44.148Z,100942.53
2019-01-25T03:32:13.474Z,100937.34
2019-01-25T03:35:01.983Z,100942.53
2019-01-25T03:37:31.308Z,100941.23
2019-01-25T03:40:01.017Z,100946.42
2019-01-25T03:42:50.737Z,100904.57
2019-01-25T03:45:21.132Z,100943.41
2019-01-25T03:47:50.618Z,100950.30
2019-01-25T03:50:39.219Z,100952.02
2019-01-25T03:53:08.530Z,100951.14
2019-01-25T03:55:38.114Z,100950.30
2019-01-25T03:58:07.404Z,100952.89
2019-01-25T04:00:36.918Z,100952.47
2019-01-25T04:03:06.315Z,100956.32
2019-01-25T04:05:35.896Z,100956.77
2019-01-25T04:08:44.480Z,100952.89
2019-01-25T04:11:14.109Z,100952.89
2019-01-25T04:13:43.411Z,100953.73
2019-01-25T04:16:12.917Z,100953.73
2019-01-25T04:18:42.250Z,100955.89
2019-01-25T04:21:11.927Z,100945.95
2019-01-25T04:23:41.184Z,100945.95
2019-01-25T04:26:10.551Z,100948.13
2019-01-25T04:28:39.835Z,100945.95
2019-01-25T04:31:09.358Z,100945.54
2019-01-25T04:33:38.628Z,100909.30
2019-01-25T04:36:08.220Z,100952.89
2019-01-25T04:38:37.499Z,100957.20
2019-01-25T04:41:11.734Z,100952.02
2019-01-25T04:43:38.224Z,100952.89
2019-01-25T04:46:26.411Z,100961.08
2019-01-25T04:48:56.009Z,100958.49
2019-01-25T04:51:25.299Z,100954.61
2019-01-25T04:53:54.876Z,100960.20
2019-01-25T04:59:12.450Z,100948.13
2019-01-25T05:01:41.804Z,100943.41
2019-01-25T05:04:11.108Z,100945.12
2019-01-25T05:06:59.337Z,100945.12
2019-01-25T05:12:23.818Z,100941.66
2019-01-25T05:14:53.107Z,100939.94
2019-01-25T05:17:22.489Z,100933.88
2019-01-25T05:19:51.982Z,100931.30
2019-01-25T05:22:21.275Z,100932.59
2019-01-25T05:24:50.674Z,100928.70
2019-01-25T05:27:19.977Z,100931.75
2019-01-25T05:29:52.143Z,100929.16
2019-01-25T05:32:21.447Z,100928.71
2019-01-25T05:34:50.968Z,100931.30
2019-01-25T05:37:20.279Z,100923.53
2019-01-25T05:39:49.715Z,100922.69
2019-01-25T05:45:26.442Z,100916.22
2019-01-25T05:47:55.760Z,100920.94
2019-01-25T05:50:25.116Z,100909.73
2019-01-25T05:52:54.553Z,100907.98
2019-01-25T05:55:24.009Z,100911.45
2019-01-25T05:58:00.044Z,100906.28
2019-01-25T06:00:33.102Z,100891.63
2019-01-25T06:03:21.478Z,100908.88
2019-01-25T06:05:52.723Z,100904.56
2019-01-25T06:08:35.276Z,100906.28
2019-01-25T06:11:23.622Z,100898.09
2019-01-25T06:16:42.744Z,100897.64
2019-01-25T06:19:12.112Z,100888.16
2019-01-25T06:21:41.414Z,100901.11
2019-01-25T06:24:10.897Z,100897.64
2019-01-25T06:26:59.242Z,100898.09
2019-01-25T06:30:07.936Z,100894.63
2019-01-25T06:32:37.238Z,100892.05
2019-01-25T06:35:06.863Z,100886.45
2019-01-25T06:37:36.171Z,100886.45
2019-01-25T06:40:24.522Z,100880.81
2019-01-25T06:42:53.826Z,100887.29
2019-01-25T06:45:23.132Z,100879.52
2019-01-25T06:50:27.247Z,100853.22
2019-01-25T06:52:56.635Z,100876.09
2019-01-25T06:55:26.392Z,100869.62
2019-01-25T06:58:14.629Z,100873.51
2019-01-25T07:00:50.653Z,100873.93
2019-01-25T07:03:19.930Z,100865.32
2019-01-25T07:05:49.261Z,100867.45
2019-01-25T07:08:19.213Z,100813.97
2019-01-25T07:10:48.854Z,100864.87
2019-01-25T07:13:18.148Z,100867.45
2019-01-25T07:15:47.812Z,100870.49
2019-01-25T07:18:17.116Z,100876.09
2019-01-25T07:20:46.662Z,100871.33
2019-01-25T07:23:15.964Z,100853.66
2019-01-25T07:25:45.240Z,100877.80
2019-01-25T07:28:14.576Z,100883.84
2019-01-25T07:30:44.145Z,100874.37
2019-01-25T07:33:13.455Z,100777.28
2019-01-25T07:38:32.309Z,100878.66
2019-01-25T07:41:01.673Z,100821.70
2019-01-25T07:43:31.313Z,100872.20
2019-01-25T07:46:00.591Z,100876.08
2019-01-25T07:48:30.329Z,100875.23
2019-01-25T07:50:59.624Z,100867.02
2019-01-25T07:53:29.277Z,100877.79
2019-01-25T07:55:58.601Z,100823.00
2019-01-25T07:58:28.117Z,100875.66
2019-01-25T08:00:57.433Z,100776.44
2019-01-25T08:03:26.954Z,100878.66
2019-01-25T08:05:56.283Z,100880.38
2019-01-25T08:08:25.759Z,100878.24
2019-01-25T08:10:55.079Z,100879.54
2019-01-25T08:13:24.681Z,100877.81
2019-01-25T08:15:53.980Z,100871.77
2019-01-25T08:18:42.422Z,100882.13
2019-01-25T08:21:12.089Z,100887.30
2019-01-25T08:23:41.347Z,100843.27
2019-01-25T08:26:10.873Z,100882.13
2019-01-25T08:28:40.181Z,100881.67
2019-01-25T08:31:09.611Z,100889.89
2019-01-25T08:33:38.889Z,100888.59
2019-01-25T08:36:19.325Z,100881.25
2019-01-25T08:38:59.987Z,100882.55
2019-01-25T08:41:29.294Z,100883.43
2019-01-25T08:43:58.912Z,100881.69
2019-01-25T08:46:47.463Z,100883.85
2019-01-25T08:49:16.863Z,100886.02
2019-01-25T08:51:46.370Z,100874.37
2019-01-25T08:54:16.014Z,100784.20
2019-01-25T08:56:46.885Z,100871.79
2019-01-25T08:59:16.267Z,100877.39
2019-01-25T09:02:04.507Z,100865.73
2019-01-25T09:04:34.048Z,100874.80
2019-01-25T09:07:03.325Z,100872.63
2019-01-25T09:09:32.744Z,100866.16
2019-01-25T09:12:02.045Z,100871.34
2019-01-25T09:19:55.051Z,100818.31
2019-01-25T09:22:24.347Z,100809.68
2019-01-25T09:24:53.833Z,100857.55
2019-01-25T09:27:43.556Z,100857.98
2019-01-25T09:32:54.701Z,100846.73
2019-01-25T09:35:24.011Z,100846.74
2019-01-25T09:38:12.504Z,100854.97
2019-01-25T09:40:42.131Z,100856.26
2019-01-25T09:43:11.400Z,100854.51
2019-01-25T09:45:41.191Z,100851.08
2019-01-25T09:48:10.473Z,100844.56
2019-01-25T09:50:40.168Z,100844.14
2019-01-25T09:53:09.459Z,100846.73
2019-01-25T09:55:39.154Z,100837.67
2019-01-25T09:58:11.066Z,100839.84
2019-01-25T10:01:00.983Z,100840.68
2019-01-25T10:03:30.309Z,100843.72
2019-01-25T10:05:59.667Z,100833.36
2019-01-25T10:08:28.972Z,100828.17
2019-01-25T10:10:58.320Z,100730.77
2019-01-25T10:13:27.706Z,100826.42
2019-01-25T10:15:56.985Z,100822.09
2019-01-25T10:18:26.298Z,100821.67
2019-01-25T10:20:55.596Z,100772.07
2019-01-25T10:23:25.008Z,100815.59
2019-01-25T10:25:54.473Z,100807.41
2019-01-25T10:28:23.985Z,100806.52
2019-01-25T10:30:53.284Z,100813.85
2019-01-25T10:33:22.718Z,100809.49
2019-01-25T10:35:52.003Z,100802.58
2019-01-25T10:38:21.372Z,100799.97
2019-01-25T10:40:50.665Z,100749.56
2019-01-25T10:43:20.192Z,100787.86
2019-01-25T10:45:49.542Z,100718.54
2019-01-25T10:48:19.058Z,100790.43
2019-01-25T10:50:48.352Z,100774.85
2019-01-25T10:53:19.372Z,100772.24
2019-01-25T10:55:48.713Z,100720.11
2019-01-25T10:58:18.091Z,100770.05
2019-01-25T11:00:47.383Z,100728.73
2019-01-25T11:03:16.805Z,100767.84
2019-01-25T11:05:46.102Z,100757.45
2019-01-25T11:08:15.600Z,100758.75
2019-01-25T11:10:44.901Z,100748.76
2019-01-25T11:13:14.232Z,100756.08
2019-01-25T11:15:43.512Z,100703.08
2019-01-25T11:18:13.010Z,100749.13
2019-01-25T11:20:42.299Z,100752.21
2019-01-25T11:23:12.045Z,100747.88
2019-01-25T11:26:00.711Z,100691.49
2019-01-25T11:28:29.995Z,100733.16
2019-01-25T11:30:59.334Z,100733.98
2019-01-25T11:33:28.652Z,100665.11
2019-01-25T11:35:58.122Z,100716.23
2019-01-25T11:38:27.416Z,100712.75
2019-01-25T11:40:57.151Z,100702.83
2019-01-25T11:43:26.452Z,100693.84
2019-01-25T11:45:56.171Z,100692.05
2019-01-25T11:48:25.465Z,100688.14
2019-01-25T11:50:54.951Z,100686.42
2019-01-25T11:53:24.237Z,100681.25
2019-01-25T11:55:53.842Z,100681.35
2019-01-25T11:58:23.160Z,100682.26
2019-01-25T12:00:53.072Z,100677.94
2019-01-25T12:03:22.364Z,100677.06
2019-01-25T12:05:52.178Z,100680.96
2019-01-25T12:08:21.472Z,100670.22
2019-01-25T12:10:51.171Z,100665.46
2019-01-25T12:13:20.490Z,100666.77
2019-01-25T12:15:51.384Z,100665.91
2019-01-25T12:18:21.029Z,100667.67
2019-01-25T12:20:50.511Z,100660.77
2019-01-25T12:23:39.144Z,100657.33
2019-01-25T12:26:08.474Z,100656.86
2019-01-25T12:28:38.075Z,100663.78
2019-01-25T12:31:07.387Z,100604.38
2019-01-25T12:33:36.944Z,100649.95
2019-01-25T12:36:06.229Z,100655.56
2019-01-25T12:38:35.696Z,100657.30
2019-01-25T12:44:13.836Z,100650.39
2019-01-25T12:46:43.144Z,100654.75
2019-01-25T12:49:12.707Z,100647.00
2019-01-25T12:52:03.043Z,100650.44
2019-01-25T12:54:32.353Z,100649.17
2019-01-25T12:57:01.625Z,100647.47
2019-01-25T12:59:30.950Z,100652.23
2019-01-25T13:04:48.996Z,100588.98
2019-01-25T13:07:18.317Z,100644.47
2019-01-25T13:09:47.806Z,100637.56
2019-01-25T13:12:17.163Z,100634.12
2019-01-25T13:14:46.865Z,100641.42
2019-01-25T13:17:35.145Z,100636.22
2019-01-25T13:23:13.982Z,100637.97
2019-01-25T13:29:09.702Z,100630.60
2019-01-25T13:31:39.453Z,100623.67
2019-01-25T13:34:10.583Z,100625.36
2019-01-25T13:36:39.897Z,100628.81
2019-01-25T13:39:29.307Z,100609.87
2019-01-25T13:44:41.722Z,100613.33
2019-01-25T13:47:11.100Z,100610.77
2019-01-25T13:49:40.451Z,100613.39
2019-01-25T13:52:09.973Z,100609.52
2019-01-25T13:54:39.343Z,100613.89
2019-01-25T13:57:08.683Z,100615.18
2019-01-25T13:59:38.026Z,100606.58
2019-01-25T14:02:07.316Z,100610.90
2019-01-25T14:04:36.610Z,100607.45
2019-01-25T14:07:06.060Z,100605.77
2019-01-25T14:09:35.358Z,100603.20
2019-01-25T14:12:04.762Z,100592.86
2019-01-25T14:14:34.160Z,100592.84
2019-01-25T14:17:03.495Z,100591.13
2019-01-25T14:19:32.793Z,100586.78
2019-01-25T14:22:02.142Z,100590.66
2019-01-25T14:24:31.436Z,100586.37
2019-01-25T14:27:00.790Z,100588.56
2019-01-25T14:29:30.323Z,100584.23
2019-01-25T14:31:59.635Z,100571.31
2019-01-25T14:34:29.066Z,100581.62
2019-01-25T14:36:58.480Z,100578.20
2019-01-25T14:39:28.156Z,100571.30
2019-01-25T14:41:57.463Z,100574.33
2019-01-25T14:44:26.962Z,100569.56
2019-01-25T14:46:56.280Z,100559.64
2019-01-25T14:49:25.756Z,100565.27
2019-01-25T14:51:55.094Z,100561.81
2019-01-25T14:54:24.524Z,100572.16
2019-01-25T14:56:53.873Z,100509.38
2019-01-25T14:59:23.405Z,100553.17
2019-01-25T15:01:52.689Z,100551.50
2019-01-25T15:04:22.340Z,100546.77
2019-01-25T15:06:51.651Z,100551.50
2019-01-25T15:09:21.227Z,100540.30
2019-01-25T15:11:50.574Z,100543.34
2019-01-25T15:14:20.030Z,100548.56
2019-01-25T15:16:49.314Z,100541.22
2019-01-25T15:19:18.792Z,100543.86
2019-01-25T15:21:48.099Z,100533.50
2019-01-25T15:24:17.574Z,100533.10
2019-01-25T15:26:46.862Z,100534.43
2019-01-25T15:29:16.328Z,100527.98
2019-01-25T15:31:45.642Z,100444.16
2019-01-25T15:34:15.403Z,100524.11
2019-01-25T15:36:44.820Z,100525.84
2019-01-25T15:39:14.263Z,100522.44
2019-01-25T15:41:43.589Z,100466.98
2019-01-25T15:44:13.249Z,100516.02
2019-01-25T15:47:01.764Z,100513.05
2019-01-25T15:49:31.098Z,100515.65
2019-01-25T15:52:00.622Z,100506.16
2019-01-25T15:54:29.939Z,100508.76
2019-01-25T15:57:18.277Z,100498.44
2019-01-25T15:59:47.732Z,100501.03
2019-01-25T16:02:17.156Z,100498.06
2019-01-25T16:04:46.627Z,100493.33
2019-01-25T16:07:15.916Z,100492.05
2019-01-25T16:09:45.221Z,100492.95
2019-01-25T16:12:14.530Z,100482.22
2019-01-25T16:14:43.975Z,100482.22
2019-01-25T16:17:13.297Z,100481.81
2019-01-25T16:19:42.754Z,100476.20
2019-01-25T16:22:12.044Z,100482.25
2019-01-25T16:24:41.395Z,100470.20
2019-01-25T16:29:58.972Z,100473.66
2019-01-25T16:32:28.298Z,100473.66
2019-01-25T16:34:57.662Z,100474.13
2019-01-25T16:37:26.981Z,100478.42
2019-01-25T16:39:56.300Z,100476.30
2019-01-25T16:42:25.711Z,100477.59
2019-01-25T16:44:55.117Z,100468.55
2019-01-25T16:47:24.413Z,100456.49
2019-01-25T16:49:53.752Z,100466.81
2019-01-25T16:52:23.066Z,100461.66
2019-01-25T16:54:52.406Z,100454.78
2019-01-25T16:57:21.698Z,100392.02
2019-01-25T16:59:51.135Z,100453.08
2019-01-25T17:02:20.435Z,100450.50
2019-01-25T17:04:50.192Z,100450.50
2019-01-25T17:07:19.499Z,100456.50
2019-01-25T17:09:48.952Z,100451.34
2019-01-25T17:12:18.267Z,100447.92
2019-01-25T17:14:47.659Z,100447.50
2019-01-25T17:17:16.973Z,100440.59
2019-01-25T17:19:46.328Z,100438.89
2019-01-25T17:22:15.675Z,100435.02
2019-01-25T17:24:45.333Z,100430.27
2019-01-25T17:27:14.646Z,100381.70
2019-01-25T17:29:44.319Z,100434.14
2019-01-25T17:32:13.635Z,100385.98
2019-01-25T17:34:43.301Z,100432.85
2019-01-25T17:37:12.605Z,100434.14
2019-01-25T17:39:42.154Z,100422.11
2019-01-25T17:42:11.461Z,100432.43
2019-01-25T17:44:41.538Z,100417.36
2019-01-25T17:47:12.058Z,100373.52
2019-01-25T17:49:41.363Z,100425.97
2019-01-25T17:52:10.718Z,100415.19
2019-01-25T17:54:59.090Z,100411.32
2019-01-25T17:57:28.477Z,100397.99
2019-01-25T18:00:29.038Z,100402.28
2019-01-25T18:02:58.474Z,100408.33
2019-01-25T18:05:27.935Z,100410.91
2019-01-25T18:07:57.331Z,100401.45
2019-01-25T18:10:26.880Z,100392.84
2019-01-25T18:16:05.023Z,100388.55
2019-01-25T18:18:34.313Z,100379.95
2019-01-25T18:21:04.227Z,100372.20
2019-01-25T18:23:33.518Z,100363.63
2019-01-25T18:26:26.053Z,100363.63
2019-01-25T18:31:55.737Z,100357.13
2019-01-25T18:34:25.042Z,100357.13
2019-01-25T18:36:54.362Z,100350.25
2019-01-25T18:39:23.653Z,100348.09
2019-01-25T18:41:53.071Z,100351.12
2019-01-25T18:44:22.379Z,100353.69
2019-01-25T18:47:10.845Z,100345.49
2019-01-25T18:49:40.379Z,100349.36
2019-01-25T18:52:09.677Z,100347.23
2019-01-25T18:54:39.218Z,100339.02
2019-01-25T18:57:08.544Z,100285.77
2019-01-25T18:59:38.224Z,100336.01
2019-01-25T19:02:07.489Z,100283.63
2019-01-25T19:04:36.981Z,100332.13
2019-01-25T19:07:25.317Z,100315.36
2019-01-25T19:09:54.618Z,100323.08
2019-01-25T19:12:24.101Z,100318.79
2019-01-25T19:14:53.506Z,100329.95
2019-01-25T19:17:23.292Z,100310.17
2019-01-25T19:19:52.583Z,100308.89
2019-01-25T19:22:22.137Z,100304.58
2019-01-25T19:24:51.456Z,100308.00
2019-01-25T19:27:23.274Z,100293.39
2019-01-25T19:29:52.596Z,100235.88
2019-01-25T19:32:41.147Z,100286.06
2019-01-25T19:38:25.290Z,100291.67
2019-01-25T19:40:54.811Z,100231.14
2019-01-25T19:43:24.596Z,100286.06
2019-01-25T19:45:54.068Z,100225.97
2019-01-25T19:48:23.601Z,100276.61
2019-01-25T19:53:48.651Z,100274.04
2019-01-25T19:56:37.057Z,100280.06
2019-01-25T19:59:46.024Z,100275.33
2019-01-25T20:02:15.516Z,100282.66
2019-01-25T20:04:44.865Z,100268.03
2019-01-25T20:07:33.228Z,100264.60
2019-01-25T20:12:51.342Z,100249.94
2019-01-25T20:15:20.862Z,100246.54
2019-01-25T20:17:50.476Z,100244.79
2019-01-25T20:20:22.164Z,100213.94
2019-01-25T20:22:51.642Z,100241.78
2019-01-25T20:26:00.370Z,100244.37
2019-01-25T20:28:29.758Z,100245.68
2019-01-25T20:30:59.122Z,100240.50
2019-01-25T20:34:07.981Z,100243.95
2019-01-25T20:39:25.726Z,100243.08
2019-01-25T20:41:55.152Z,100237.52
2019-01-25T20:44:24.544Z,100233.63
2019-01-25T20:46:53.849Z,100231.89
2019-01-25T20:49:23.144Z,100231.05
2019-01-25T20:51:52.544Z,100221.55
2019-01-25T20:54:21.972Z,100219.46
2019-01-25T20:56:51.361Z,100233.63
2019-01-25T20:59:20.667Z,100233.63
2019-01-25T21:01:50.017Z,100237.92
2019-01-25T21:04:19.367Z,100237.06
2019-01-25T21:06:48.913Z,100247.38
2019-01-25T21:09:18.218Z,100238.80
2019-01-25T21:11:47.605Z,100235.77
2019-01-25T21:14:16.938Z,100228.45
2019-01-25T21:16:46.340Z,100229.30
2019-01-25T21:19:15.665Z,100179.14
2019-01-25T21:21:45.061Z,100225.41
2019-01-25T21:24:14.452Z,100224.59
2019-01-25T21:26:44.343Z,100212.11
2019-01-25T21:29:13.641Z,100167.52
2019-01-25T21:31:43.269Z,100228.02
2019-01-25T21:34:12.574Z,100222.44
2019-01-25T21:36:42.109Z,100160.63
2019-01-25T21:39:11.526Z,100213.39
2019-01-25T21:41:41.075Z,100217.23
2019-01-25T21:44:10.615Z,100210.36
2019-01-25T21:46:40.649Z,100205.63
2019-01-25T21:49:09.996Z,100206.48
2019-01-25T21:51:39.413Z,100205.19
2019-01-25T21:54:08.735Z,100208.62
2019-01-25T21:56:38.309Z,100201.75
2019-01-25T21:59:07.618Z,100179.42
2019-01-25T22:04:12.798Z,100183.26
2019-01-25T22:06:42.123Z,100178.53
2019-01-25T22:09:30.560Z,100170.80
2019-01-25T22:12:00.668Z,100167.34
2019-01-25T22:14:29.977Z,100052.48
2019-01-25T22:19:34.470Z,100151.85
2019-01-25T22:22:03.954Z,100106.86
2019-01-25T22:24:33.624Z,100144.56
2019-01-25T22:27:02.976Z,100147.13
2019-01-25T22:29:32.353Z,100136.80
2019-01-25T22:32:01.773Z,100060.06
2019-01-25T22:34:31.618Z,100127.33
2019-01-25T22:37:00.954Z,100120.87
2019-01-25T22:39:30.356Z,100116.58
2019-01-25T22:41:59.733Z,100117.44
2019-01-25T22:44:29.269Z,100113.57
2019-01-25T22:46:58.901Z,100068.59
2019-01-25T22:49:28.695Z,100115.70
2019-01-25T22:51:57.982Z,100105.84
2019-01-25T22:54:27.408Z,100095.05
2019-01-25T22:56:56.738Z,100095.50
2019-01-25T22:59:26.401Z,100091.65
2019-01-25T23:01:55.688Z,100099.39
2019-01-25T23:04:56.275Z,100086.47
2019-01-25T23:07:44.607Z,99995.64
2019-01-25T23:10:16.707Z,100086.89
2019-01-25T23:13:05.457Z,100076.15
2019-01-25T23:15:34.764Z,100068.38
2019-01-25T23:18:04.262Z,100070.08
2019-01-25T23:20:33.564Z,100015.27
2019-01-25T23:23:03.328Z,100062.77
2019-01-25T23:25:32.993Z,100070.08
2019-01-25T23:28:02.695Z,100061.45
2019-01-25T23:30:31.997Z,100002.80
2019-01-25T23:33:01.560Z,100048.56
2019-01-25T23:35:30.874Z,99942.38
2019-01-25T23:40:48.856Z,99987.33
2019-01-25T23:43:18.154Z,99984.34
2019-01-25T23:45:47.689Z,100029.20
2019-01-25T23:48:16.988Z,100019.32
2019-01-25T23:50:46.302Z,100018.03
2019-01-25T23:53:15.626Z,100011.13
2019-01-25T23:55:45.117Z,100005.55
2019-01-25T23:58:14.390Z,100000.42
